Voorhies, Louisiana
Current Conditions -  °F | °C
As of 10:53 PM on Friday 19 Dec 2014 (Local Time) from KESF Reporting Station
Overcast Overcast  
Wind Chill: 46°   Ceiling: 700
Heat Index: 48°   Visibility: 10mi
Dew Point: 45°   Wind: 5mph
Humidity: 89%   Direction: NA
Pressure: 30.16"   Gusts: NA
Location:  31.0386°N, 91.9871°W
Report Text: KESF 200453Z AUTO VRB04KT 10SM OVC007 09/07 A3016 RMK AO2 SLP212 T00890072
Loading
Personal Weather Stations






























Interactive Weather Map New forecast layout! Learn more

10-Day Weather Forecast

Advertisements
Track Severe Weather on mobile